createdAt,value
2023-03-04T00:01:40.987Z,54.90
2023-03-04T00:04:09.829Z,54.90
2023-03-04T00:06:39.041Z,52.30
2023-03-04T00:09:07.927Z,60.40
2023-03-04T00:11:37.089Z,54.30
2023-03-04T00:14:05.946Z,51.50
2023-03-04T00:16:34.827Z,57.00
2023-03-04T00:19:03.875Z,52.70
2023-03-04T00:21:34.331Z,60.50
2023-03-04T00:24:03.266Z,48.90
2023-03-04T00:26:32.165Z,49.70
2023-03-04T00:29:00.916Z,52.20
2023-03-04T00:31:29.729Z,50.80
2023-03-04T00:33:58.668Z,50.50
2023-03-04T00:36:27.527Z,52.40
2023-03-04T00:38:57.046Z,54.00
2023-03-04T00:41:25.953Z,51.30
2023-03-04T00:43:54.834Z,49.80
2023-03-04T00:46:23.695Z,54.00
2023-03-04T00:48:53.746Z,51.60
2023-03-04T00:51:22.548Z,47.10
2023-03-04T00:53:52.521Z,51.70
2023-03-04T00:56:21.315Z,50.60
2023-03-04T00:58:50.184Z,52.00
2023-03-04T01:01:19.083Z,54.70
2023-03-04T01:03:47.821Z,51.50
2023-03-04T01:06:16.650Z,49.50
2023-03-04T01:08:46.742Z,49.90
2023-03-04T01:11:15.799Z,46.80
2023-03-04T01:13:44.571Z,46.80
2023-03-04T01:16:13.412Z,51.40
2023-03-04T01:18:42.578Z,48.90
2023-03-04T01:21:11.479Z,52.20
2023-03-04T01:23:40.290Z,52.40
2023-03-04T01:26:10.874Z,48.30
2023-03-04T01:28:39.731Z,50.90
2023-03-04T01:31:08.877Z,52.10
2023-03-04T01:33:37.767Z,51.00
2023-03-04T01:36:07.007Z,64.10
2023-03-04T01:38:36.134Z,58.70
2023-03-04T01:41:06.220Z,48.70
2023-03-04T01:43:48.902Z,48.50
2023-03-04T01:46:18.033Z,49.70
2023-03-04T01:48:46.802Z,50.50
2023-03-04T01:51:18.401Z,52.20
2023-03-04T01:53:55.129Z,50.60
2023-03-04T01:56:36.622Z,52.90
2023-03-04T01:59:16.390Z,50.80
2023-03-04T02:01:52.261Z,56.00
2023-03-04T02:04:28.571Z,54.30
2023-03-04T02:07:00.013Z,45.90
2023-03-04T02:09:31.290Z,54.00
2023-03-04T02:12:00.596Z,54.30
2023-03-04T02:14:30.095Z,47.90
2023-03-04T02:16:59.456Z,53.10
2023-03-04T02:19:47.674Z,45.60
2023-03-04T02:22:16.445Z,46.60
2023-03-04T02:25:00.214Z,44.30
2023-03-04T02:27:29.240Z,41.60
2023-03-04T02:29:58.646Z,50.20
2023-03-04T02:32:29.063Z,44.20
2023-03-04T02:34:58.058Z,45.70
2023-03-04T02:37:27.046Z,46.10
2023-03-04T02:39:56.000Z,45.00
2023-03-04T02:42:24.763Z,44.00
2023-03-04T02:45:01.785Z,53.20
2023-03-04T02:47:30.957Z,46.80
2023-03-04T02:49:59.915Z,49.10
2023-03-04T02:52:29.046Z,50.40
2023-03-04T02:54:59.295Z,48.50
2023-03-04T02:57:28.203Z,45.80
2023-03-04T02:59:57.236Z,49.10
2023-03-04T03:02:27.907Z,44.50
2023-03-04T03:04:56.877Z,42.70
2023-03-04T03:07:28.008Z,43.90
2023-03-04T03:09:56.936Z,45.00
2023-03-04T03:12:25.783Z,48.80
2023-03-04T03:14:54.629Z,47.30
2023-03-04T03:17:24.933Z,71.20
2023-03-04T03:19:54.266Z,57.50
2023-03-04T03:22:23.161Z,64.00
2023-03-04T03:24:52.105Z,64.40
2023-03-04T03:27:20.917Z,50.70
2023-03-04T03:29:49.801Z,52.40
2023-03-04T03:32:18.623Z,53.20
2023-03-04T03:34:47.525Z,50.90
2023-03-04T03:37:16.575Z,57.00
2023-03-04T03:39:45.372Z,50.70
2023-03-04T03:42:14.196Z,55.20
2023-03-04T03:44:43.124Z,49.50
2023-03-04T03:47:11.926Z,49.40
2023-03-04T03:49:40.680Z,43.60
2023-03-04T03:52:09.598Z,46.80
2023-03-04T03:54:38.448Z,51.20
2023-03-04T03:57:07.240Z,43.20
2023-03-04T03:59:36.180Z,43.50
2023-03-04T04:02:05.217Z,44.50
2023-03-04T04:04:34.126Z,49.20
2023-03-04T04:07:02.887Z,48.40
2023-03-04T04:09:31.740Z,48.70
2023-03-04T04:12:00.554Z,47.00
2023-03-04T04:14:29.383Z,45.40
2023-03-04T04:16:58.140Z,52.90
2023-03-04T04:19:27.272Z,49.40
2023-03-04T04:21:56.210Z,50.60
2023-03-04T04:24:25.030Z,50.70
2023-03-04T04:26:53.857Z,48.80
2023-03-04T04:29:23.337Z,47.30
2023-03-04T04:31:52.391Z,52.60
2023-03-04T04:34:21.349Z,55.50
2023-03-04T04:36:50.137Z,52.70
2023-03-04T04:39:19.601Z,56.00
2023-03-04T04:41:49.117Z,105.50
2023-03-04T04:44:17.960Z,113.30
2023-03-04T04:46:47.665Z,90.40
2023-03-04T04:49:16.548Z,75.30
2023-03-04T04:51:45.524Z,71.90
2023-03-04T04:54:15.648Z,66.00
2023-03-04T04:56:44.321Z,70.30
2023-03-04T04:59:13.383Z,62.20
2023-03-04T05:01:42.371Z,53.40
2023-03-04T05:04:12.309Z,54.90
2023-03-04T05:06:41.412Z,47.90
2023-03-04T05:09:10.297Z,58.70
2023-03-04T05:11:39.177Z,54.30
2023-03-04T05:14:07.977Z,52.40
2023-03-04T05:16:36.754Z,54.40
2023-03-04T05:19:05.477Z,50.40
2023-03-04T05:21:34.334Z,48.80
2023-03-04T05:24:03.327Z,50.00
2023-03-04T05:26:32.268Z,52.50
2023-03-04T05:29:01.241Z,48.70
2023-03-04T05:31:30.186Z,52.20
2023-03-04T05:33:59.490Z,50.90
2023-03-04T05:36:28.468Z,53.20
2023-03-04T05:38:57.193Z,48.90
2023-03-04T05:41:26.153Z,46.30
2023-03-04T05:43:56.681Z,51.40
2023-03-04T05:46:25.968Z,47.40
2023-03-04T05:48:56.569Z,41.90
2023-03-04T05:51:25.484Z,50.10
2023-03-04T05:53:54.285Z,49.10
2023-03-04T05:56:23.125Z,44.10
2023-03-04T05:58:51.960Z,55.50
2023-03-04T06:01:20.660Z,53.60
2023-03-04T06:03:49.494Z,55.40
2023-03-04T06:06:18.667Z,59.50
2023-03-04T06:08:47.585Z,50.50
2023-03-04T06:11:16.451Z,48.20
2023-03-04T06:13:45.649Z,55.70
2023-03-04T06:16:14.597Z,50.70
2023-03-04T06:18:43.650Z,51.30
2023-03-04T06:21:12.604Z,52.30
2023-03-04T06:23:42.279Z,60.30
2023-03-04T06:26:15.930Z,51.50
2023-03-04T08:28:29.633Z,39.50
2023-03-04T08:30:58.456Z,32.60
2023-03-04T08:33:30.525Z,32.80
2023-03-04T08:36:00.839Z,35.00
2023-03-04T08:38:29.652Z,29.60
2023-03-04T08:40:58.617Z,39.70
2023-03-04T08:43:27.528Z,31.50
2023-03-04T08:45:57.059Z,35.20
2023-03-04T08:48:26.099Z,36.60
2023-03-04T08:50:55.179Z,37.20
2023-03-04T08:53:24.679Z,36.20
2023-03-04T08:55:53.924Z,37.30
2023-03-04T08:58:22.709Z,35.60
2023-03-04T09:00:51.916Z,32.60
2023-03-04T09:03:21.944Z,35.60
2023-03-04T09:05:51.166Z,30.90
2023-03-04T09:08:20.043Z,37.80
2023-03-04T09:10:54.684Z,30.60
2023-03-04T09:13:26.463Z,31.20
2023-03-04T09:15:56.260Z,27.70
2023-03-04T09:18:26.806Z,31.90
2023-03-04T09:20:56.694Z,31.40
2023-03-04T09:23:25.834Z,27.70
2023-03-04T09:25:54.549Z,31.90
2023-03-04T09:28:23.425Z,29.30
2023-03-04T09:30:52.497Z,35.20
2023-03-04T09:33:21.383Z,31.30
2023-03-04T09:35:50.239Z,32.20
2023-03-04T09:38:19.042Z,32.00
2023-03-04T09:40:49.796Z,28.40
2023-03-04T09:43:30.155Z,27.50
2023-03-04T09:46:16.383Z,29.60
2023-03-04T09:48:51.195Z,24.70
2023-03-04T09:51:35.688Z,25.70
2023-03-04T09:54:34.182Z,25.90
2023-03-04T09:57:38.095Z,26.10
2023-03-04T10:00:21.210Z,23.50
2023-03-04T10:05:55.718Z,22.10
2023-03-04T10:08:50.272Z,31.70
2023-03-04T10:11:40.562Z,23.20
2023-03-04T10:14:46.392Z,24.60
2023-03-04T10:17:34.979Z,29.20
2023-03-04T10:20:26.701Z,27.20
2023-03-04T10:23:15.147Z,22.00
2023-03-04T10:25:47.134Z,17.90
2023-03-04T10:28:24.738Z,23.50
2023-03-04T10:31:10.043Z,23.70
2023-03-04T10:33:41.117Z,22.90
2023-03-04T10:36:30.867Z,26.70
2023-03-04T10:39:20.191Z,20.80
2023-03-04T10:41:59.196Z,25.10
2023-03-04T10:44:29.931Z,24.30
2023-03-04T10:46:59.317Z,23.60
2023-03-04T10:49:31.346Z,17.40
2023-03-04T10:52:41.713Z,23.90
2023-03-04T10:55:25.437Z,25.10
2023-03-04T10:58:06.696Z,20.40
2023-03-04T11:00:39.030Z,24.10
2023-03-04T11:03:30.149Z,21.10
2023-03-04T11:06:17.679Z,27.40
2023-03-04T11:08:57.795Z,28.40
2023-03-04T11:11:38.941Z,22.30
2023-03-04T11:14:50.844Z,20.90
2023-03-04T11:17:28.293Z,23.70
2023-03-04T11:20:40.938Z,22.80
2023-03-04T11:23:45.760Z,21.40
2023-03-04T11:26:31.682Z,23.90
2023-03-04T11:29:04.899Z,18.30
2023-03-04T11:32:01.625Z,22.80
2023-03-04T11:34:47.664Z,22.20
2023-03-04T11:37:48.132Z,15.30
2023-03-04T11:40:55.172Z,19.10
2023-03-04T11:43:47.801Z,15.10
2023-03-04T11:46:48.415Z,16.80
2023-03-04T11:49:34.042Z,15.40
2023-03-04T11:52:05.783Z,15.70
2023-03-04T11:55:08.499Z,17.30
2023-03-04T11:58:07.946Z,16.70
2023-03-04T12:00:58.217Z,15.60
2023-03-04T12:04:04.075Z,16.90
2023-03-04T12:07:31.835Z,17.30
2023-03-04T12:10:34.034Z,16.70
2023-03-04T12:13:48.681Z,21.10
2023-03-04T12:16:35.117Z,17.70
2023-03-04T12:19:07.057Z,18.00
2023-03-04T12:21:56.488Z,18.50
2023-03-04T12:24:49.478Z,19.00
2023-03-04T12:28:05.475Z,16.40
2023-03-04T12:30:51.651Z,19.90
2023-03-04T12:33:32.096Z,16.40
2023-03-04T12:36:44.609Z,12.30
2023-03-04T12:39:51.018Z,12.70
2023-03-04T12:42:32.539Z,13.50
2023-03-04T12:45:26.275Z,10.50
2023-03-04T12:48:19.347Z,15.90
2023-03-04T12:54:14.834Z,10.90
2023-03-04T12:56:58.729Z,12.90
2023-03-04T12:59:35.235Z,11.80
2023-03-04T13:02:30.912Z,12.40
2023-03-04T13:05:32.547Z,11.80
2023-03-04T13:08:14.691Z,12.40
2023-03-04T13:10:43.556Z,11.90
2023-03-04T13:13:42.930Z,12.60
2023-03-04T13:16:14.476Z,14.10
2023-03-04T13:18:45.194Z,16.50
2023-03-04T13:21:23.888Z,13.00
2023-03-04T13:23:54.315Z,13.50
2023-03-04T13:26:35.225Z,11.30
2023-03-04T13:29:14.656Z,10.60
2023-03-04T13:32:04.885Z,12.20
2023-03-04T13:34:57.889Z,13.60
2023-03-04T13:37:37.759Z,13.30
2023-03-04T13:40:23.498Z,13.00
2023-03-04T13:42:52.544Z,12.40
2023-03-04T13:45:36.034Z,12.80
2023-03-04T13:48:23.448Z,14.10
2023-03-04T13:50:53.069Z,17.70
2023-03-04T13:53:45.056Z,12.90
2023-03-04T13:56:31.869Z,12.50
2023-03-04T13:59:09.862Z,12.60
2023-03-04T14:01:41.735Z,12.40
2023-03-04T14:04:37.622Z,10.30
2023-03-04T14:07:33.923Z,14.60
2023-03-04T14:10:12.471Z,13.10
2023-03-04T14:12:47.874Z,16.30
2023-03-04T14:15:29.475Z,12.40
2023-03-04T14:18:06.210Z,13.80
2023-03-04T14:20:42.911Z,15.10
2023-03-04T14:23:32.336Z,13.60
2023-03-04T14:26:14.523Z,13.40
2023-03-04T14:28:52.747Z,15.30
2023-03-04T14:31:24.830Z,13.40
2023-03-04T14:34:02.622Z,15.30
2023-03-04T14:36:37.217Z,14.90
2023-03-04T14:39:07.467Z,13.10
2023-03-04T14:41:41.547Z,12.70
2023-03-04T14:44:48.502Z,11.90
2023-03-04T14:47:38.355Z,15.50
2023-03-04T14:50:20.195Z,14.70
2023-03-04T14:52:54.562Z,16.80
2023-03-04T14:55:26.928Z,16.90
2023-03-04T14:58:24.347Z,13.60
2023-03-04T15:01:29.675Z,15.00
2023-03-04T15:04:04.763Z,12.40
2023-03-04T15:06:55.256Z,12.90
2023-03-04T15:09:28.021Z,12.40
2023-03-04T15:14:52.649Z,10.70
2023-03-04T15:17:38.303Z,10.00
2023-03-04T15:20:09.963Z,13.80
2023-03-04T15:22:44.933Z,11.50
2023-03-04T15:25:15.561Z,18.60
2023-03-04T15:27:46.094Z,13.40
2023-03-04T15:30:36.483Z,13.10
2023-03-04T15:33:10.558Z,14.10
2023-03-04T15:35:40.085Z,13.10
2023-03-04T15:38:13.020Z,18.10
2023-03-04T15:43:18.102Z,22.40
2023-03-04T15:45:49.325Z,23.00
2023-03-04T15:48:19.638Z,26.50
2023-03-04T15:51:01.415Z,24.10
2023-03-04T15:53:48.650Z,21.70
2023-03-04T15:56:31.209Z,23.40
2023-03-04T15:59:06.683Z,32.10
2023-03-04T16:01:35.681Z,37.70
2023-03-04T16:04:04.683Z,62.70
2023-03-04T16:06:33.947Z,36.80
2023-03-04T16:09:07.089Z,32.40
2023-03-04T16:11:42.368Z,27.90
2023-03-04T16:14:12.110Z,27.40
2023-03-04T16:16:44.847Z,25.80
2023-03-04T16:19:13.753Z,25.80
2023-03-04T16:21:42.792Z,27.80
2023-03-04T16:24:18.954Z,33.70
2023-03-04T16:26:48.472Z,35.10
2023-03-04T16:29:17.249Z,37.80
2023-03-04T16:31:46.371Z,38.20
2023-03-04T16:34:15.331Z,37.40
2023-03-04T16:36:44.301Z,40.00
2023-03-04T16:39:26.065Z,46.60
2023-03-04T16:41:55.351Z,37.90
2023-03-04T16:44:24.263Z,34.60
2023-03-04T16:46:53.236Z,45.50
2023-03-04T16:49:22.186Z,32.80
2023-03-04T16:51:51.555Z,46.00
2023-03-04T16:54:30.563Z,32.80
2023-03-04T16:57:00.300Z,38.80
2023-03-04T16:59:29.663Z,42.10
2023-03-04T17:01:58.710Z,39.30
2023-03-04T17:04:27.830Z,36.80
2023-03-04T17:06:58.020Z,33.90
2023-03-04T17:09:26.819Z,39.90
2023-03-04T17:11:59.561Z,34.10
2023-03-04T17:16:57.642Z,38.20
2023-03-04T17:19:27.327Z,39.20
2023-03-04T17:22:01.522Z,40.50
2023-03-04T17:24:31.236Z,34.10
2023-03-04T17:27:00.071Z,36.40
2023-03-04T17:29:28.930Z,34.50
2023-03-04T17:31:57.822Z,32.40
2023-03-04T17:34:26.723Z,35.90
2023-03-04T17:36:55.601Z,33.20
2023-03-04T17:39:24.948Z,33.70
2023-03-04T17:41:54.161Z,33.50
2023-03-04T17:44:23.468Z,33.30
2023-03-04T17:46:52.348Z,32.70
2023-03-04T17:49:21.815Z,26.60
2023-03-04T17:51:51.505Z,32.70
2023-03-04T17:54:20.405Z,28.30
2023-03-04T17:56:49.249Z,31.10
2023-03-04T17:59:18.416Z,29.50
2023-03-04T18:01:47.432Z,23.40
2023-03-04T18:04:17.064Z,24.20
2023-03-04T18:06:46.558Z,21.00
2023-03-04T18:09:15.622Z,21.30
2023-03-04T18:11:44.551Z,23.90
2023-03-04T18:14:13.445Z,21.80
2023-03-04T18:16:42.406Z,22.10
2023-03-04T18:19:11.211Z,22.10
2023-03-04T18:21:40.014Z,24.90
2023-03-04T18:24:09.838Z,23.60
2023-03-04T18:26:38.528Z,23.80
2023-03-04T18:29:08.279Z,23.20
2023-03-04T18:31:37.197Z,25.50
2023-03-04T18:34:06.652Z,24.70
2023-03-04T18:36:35.436Z,27.20
2023-03-04T18:39:05.818Z,28.60
2023-03-04T18:41:34.707Z,26.70
2023-03-04T18:44:03.671Z,25.10
2023-03-04T18:46:48.175Z,26.60
2023-03-04T18:49:19.247Z,27.10
2023-03-04T18:51:48.072Z,24.80
2023-03-04T18:54:16.868Z,26.30
2023-03-04T18:56:50.816Z,29.30
2023-03-04T18:59:47.342Z,26.70
2023-03-04T19:02:25.126Z,28.00
2023-03-04T19:04:58.101Z,25.20
2023-03-04T19:07:27.305Z,30.00
2023-03-04T19:09:56.123Z,30.70
2023-03-04T19:12:25.001Z,36.70
2023-03-04T19:14:54.027Z,34.20
2023-03-04T19:17:22.991Z,36.10
2023-03-04T19:19:52.287Z,31.10
2023-03-04T19:22:21.242Z,30.20
2023-03-04T19:24:50.252Z,33.50
2023-03-04T19:27:20.194Z,32.70
2023-03-04T19:29:49.653Z,31.30
2023-03-04T19:32:19.419Z,37.90
2023-03-04T19:34:48.743Z,35.20
2023-03-04T19:37:18.088Z,30.80
2023-03-04T19:39:49.227Z,35.10
2023-03-04T19:42:18.595Z,29.20
2023-03-04T19:44:47.485Z,26.10
2023-03-04T19:47:16.377Z,27.30
2023-03-04T19:49:45.365Z,24.70
2023-03-04T19:52:14.251Z,24.40
2023-03-04T19:54:42.987Z,21.20
2023-03-04T19:57:11.903Z,24.20
2023-03-04T19:59:40.882Z,26.20
2023-03-04T20:02:10.543Z,35.30
2023-03-04T20:04:42.728Z,30.20
2023-03-04T20:07:11.979Z,21.00
2023-03-04T20:09:41.116Z,20.20
2023-03-04T20:12:10.399Z,19.90
2023-03-04T20:14:39.668Z,19.40
2023-03-04T20:17:10.700Z,28.40
2023-03-04T20:19:39.591Z,28.90
2023-03-04T20:22:08.987Z,28.50
2023-03-04T20:24:37.797Z,35.00
2023-03-04T20:27:06.561Z,42.80
2023-03-04T20:29:35.337Z,41.80
2023-03-04T20:32:04.382Z,48.90
2023-03-04T20:34:34.397Z,43.30
2023-03-04T20:37:03.797Z,27.80
2023-03-04T20:39:33.754Z,26.60
2023-03-04T20:42:02.592Z,30.60
2023-03-04T20:44:31.819Z,29.00
2023-03-04T20:47:00.657Z,30.40
2023-03-04T20:49:30.138Z,30.70
2023-03-04T20:52:06.699Z,31.00
2023-03-04T20:54:37.829Z,32.20
2023-03-04T20:57:08.266Z,32.70
2023-03-04T20:59:39.821Z,42.20
2023-03-04T21:02:14.456Z,27.70
2023-03-04T21:04:44.225Z,27.30
2023-03-04T21:07:13.305Z,28.20
2023-03-04T21:09:42.331Z,30.20
2023-03-04T21:12:11.721Z,35.90
2023-03-04T21:14:41.087Z,31.00
2023-03-04T21:17:10.016Z,37.80
2023-03-04T21:19:45.326Z,39.80
2023-03-04T21:22:17.746Z,36.30
2023-03-04T21:24:48.099Z,39.20
2023-03-04T21:27:17.187Z,39.70
2023-03-04T21:29:46.051Z,39.60
2023-03-04T21:32:24.908Z,39.20
2023-03-04T21:34:55.880Z,41.30
2023-03-04T21:37:26.350Z,41.60
2023-03-04T21:39:55.698Z,42.20
2023-03-04T21:42:24.467Z,44.10
2023-03-04T21:44:53.358Z,44.70
2023-03-04T21:47:22.614Z,48.00
2023-03-04T21:49:51.559Z,47.20
2023-03-04T21:52:22.102Z,46.20
2023-03-04T21:54:51.083Z,36.20
2023-03-04T21:57:20.302Z,38.90
2023-03-04T21:59:49.497Z,35.40
2023-03-04T22:02:22.359Z,57.30
2023-03-04T22:04:51.394Z,48.10
2023-03-04T22:07:20.261Z,51.00
2023-03-04T22:09:49.217Z,48.10
2023-03-04T22:12:19.542Z,47.60
2023-03-04T22:14:48.554Z,51.00
2023-03-04T22:17:17.461Z,52.20
2023-03-04T22:19:46.335Z,51.00
2023-03-04T22:22:18.127Z,46.20
2023-03-04T22:24:47.007Z,47.80
2023-03-04T22:27:16.029Z,47.00
2023-03-04T22:29:44.797Z,53.30
2023-03-04T22:32:17.235Z,52.80
2023-03-04T22:34:46.177Z,54.30
2023-03-04T22:37:15.137Z,51.20
2023-03-04T22:39:43.907Z,51.80
2023-03-04T22:42:12.699Z,51.20
2023-03-04T22:44:41.668Z,50.50
2023-03-04T22:47:10.584Z,50.10
2023-03-04T22:49:41.805Z,47.10
2023-03-04T22:52:10.671Z,46.60
2023-03-04T22:54:39.462Z,39.50
2023-03-04T22:57:08.233Z,51.00
2023-03-04T22:59:37.088Z,51.90
2023-03-04T23:02:06.274Z,51.00
2023-03-04T23:04:35.123Z,50.90
2023-03-04T23:07:04.300Z,51.40
2023-03-04T23:09:33.400Z,48.90
2023-03-04T23:12:02.167Z,54.70
2023-03-04T23:14:31.563Z,52.20
2023-03-04T23:17:01.279Z,56.40
2023-03-04T23:19:30.364Z,50.00
2023-03-04T23:21:59.494Z,52.60
2023-03-04T23:24:28.424Z,54.30
2023-03-04T23:26:57.367Z,55.90
2023-03-04T23:29:26.220Z,54.90
2023-03-04T23:31:55.003Z,52.00
2023-03-04T23:34:23.989Z,51.30
2023-03-04T23:36:52.968Z,60.60
2023-03-04T23:39:21.799Z,55.70
2023-03-04T23:41:50.682Z,52.70
2023-03-04T23:44:19.390Z,55.40
2023-03-04T23:46:48.210Z,59.20
2023-03-04T23:49:18.124Z,60.50
2023-03-04T23:51:47.273Z,56.30
2023-03-04T23:54:16.102Z,50.70
2023-03-04T23:56:45.162Z,48.90
2023-03-04T23:59:14.478Z,51.50
